Overton, Nevada Weather observations

Data are for observation ending at time listed.
 Day   Time    Ave.   Ave.  Ave.  Vector   Max.   Stn.    Total    Solar   Ave.  
  of    of     Air    Rel.  Wind   Wind    Wind   Baro.  Precip.   Rad.    Soil  
Year   Day     Temp.  Hum.  Speed  Dir.    Gust   Pres.                    Temp. 
2014   (PST)    F      %     mph   deg.    mph     mb.     in.     W/m2     F   
------------------------------------------------------------------------------
 293   17:00   83.0    26    0.8   108      2.9   963.1    0.00       3    80.2
 293   17:10   81.6    28    0.2   207      1.2   962.9    0.00       1    79.9
 293   17:20   80.0    30    0.1   226      0.9   962.8    0.00       0    79.7
 293   17:30   76.8    35    1.0   341      1.9   962.7    0.00       0    79.4
 293   17:40   75.5    36    0.9   333      2.0   962.7    0.00       0    79.1
 293   17:50   75.1    37    0.1   289      0.9   962.5    0.00       0    78.9
 293   18:00   73.9    39    0.6   321      1.1   962.4    0.00       0    78.6
 293   18:10   72.8    41    0.8   314      1.6   962.3    0.00       0    78.3
 293   18:20   72.1    42    1.7   306      3.4   962.3    0.00       0    78.0
 293   18:30   74.0    36    3.2   294      5.4   962.3    0.00       0    77.8
 293   18:40   72.2    40    2.4   319      3.5   962.3    0.00       0    77.5
 293   18:50   70.3    44    2.2   328      3.4   962.2    0.00       0    77.3
 293   19:00   71.4    41    1.6   299      3.3   962.1    0.00       0    77.0
 293   19:10   70.6    43    1.2   303      2.2   962.0    0.00       0    76.8
 293   19:20   70.7    42    1.8   289      3.1   962.0    0.00       0    76.6
 293   19:30   69.6    44    1.5   299      2.1   962.0    0.00       0    76.4
 293   19:40   68.3    48    1.7   330      3.1   962.0    0.00       0    76.1
 293   19:50   67.3    48    1.7   306      3.0   962.1    0.00       0    75.9
 293   20:00   68.4    45    0.9   313      2.3   962.2    0.00       0    75.7
 293   20:10   67.7    48    2.4   348      3.6   962.2    0.00       0    75.5
 293   20:20   67.1    48    2.6   312      3.3   962.3    0.00       0    75.3
 293   20:30   68.6    44    0.6   291      2.9   962.4    0.00       0    75.1
 293   20:40   69.0    42    1.7   275      4.4   962.5    0.00       0    74.9
 293   20:50   68.4    43    1.4   284      3.3   962.5    0.00       0    74.7
 293   21:00   67.1    46    1.2   314      2.0   962.5    0.00       0    74.6
 293   21:10   66.6    46    1.6   304      3.0   962.5    0.00       0    74.4
 293   21:20   65.4    50    1.4   325      2.9   962.6    0.00       0    74.2
 293   21:30   64.6    52    2.4   324      3.7   962.6    0.00       0    74.0
 293   21:40   64.7    51    1.2   355      1.9   962.6    0.00       0    73.9
 293   21:50   65.4    51    0.4    16      1.5   962.6    0.00       0    73.7
 293   22:00   65.5    51    0.4   280      2.2   962.5    0.00       0    73.6
 293   22:10   64.8    52    0.0     0      0.0   962.4    0.00       0    73.4
 293   22:20   64.2    54    0.1   268      1.5   962.4    0.00       0    73.3
 293   22:30   63.9    52    1.6   315      2.7   962.4    0.00       0    73.0
 293   22:40   63.6    52    1.9   305      4.0   962.4    0.00       0    72.9
 293   22:50   63.7    50    1.9   297      3.2   962.3    0.00       0    72.7
 293   23:00   63.4    50    1.6   308      2.4   962.3    0.00       0    72.6
 293   23:10   63.7    52    1.8   328      5.1   962.3    0.00       0    72.4
 293   23:20   65.8    47    2.4   292      5.8   962.3    0.00       0    72.3
 293   23:30   65.9    47    2.9   290      6.1   962.3    0.00       0    72.3
 293   23:40   66.1    46    2.6   272      5.5   962.4    0.00       0    72.2
 293   23:50   65.9    47    3.1   300      3.9   962.5    0.00       0    72.2
 294    0:00   65.3    48    2.4   314      3.8   962.5    0.00       0    72.1
 294    0:10   64.9    50    2.1   311      3.2   962.5    0.00       0    72.0
 294    0:20   65.0    49    2.5   304      4.8   962.6    0.00       0    72.0
 294    0:30   64.4    50    5.5   310      6.9   962.6    0.00       0    71.8
 294    0:40   64.3    50    3.8   312      5.8   962.7    0.00       0    71.7
 294    0:50   64.5    50    1.0   345      2.6   962.7    0.00       0    71.6
 294    1:00   64.4    52    0.8     6      2.3   962.6    0.00       0    71.4
 294    1:10   64.7    51    2.2   291      4.3   962.6    0.00       0    71.3
 294    1:20   65.3    49    1.8   263      3.8   962.6    0.00       0    71.3
 294    1:30   64.9    50    0.9   282      3.7   962.7    0.00       0    71.2
 294    1:40   63.2    53    2.0   320      3.8   962.7    0.00       0    71.2
 294    1:50   62.0    57    2.6   346      3.4   962.6    0.00       0    71.0
 294    2:00   61.4    59    1.9   345      3.0   962.5    0.00       0    70.9
 294    2:10   62.8    55    1.0   253      3.5   962.5    0.00       0    70.7
 294    2:20   63.4    53    1.5   250      2.8   962.5    0.00       0    70.6
 294    2:30   62.3    55    2.4   295      4.0   962.6    0.00       0    70.5
 294    2:40   61.4    56    2.3   305      3.5   962.5    0.00       0    70.4
 294    2:50   60.8    58    1.9   308      3.2   962.5    0.00       0    70.2
 294    3:00   59.7    63    2.5   333      3.5   962.4    0.00       0    70.1
 294    3:10   59.8    61    1.6   318      3.2   962.4    0.00       0    69.9
 294    3:20   60.4    60    2.3   320      3.3   962.4    0.00       0    69.8
 294    3:30   60.8    60    1.6   311      2.8   962.4    0.00       0    69.7
 294    3:40   61.4    58    0.6   252      2.3   962.3    0.00       0    69.6
 294    3:50   61.0    58    2.2   284      4.2   962.3    0.00       0    69.5
 294    4:00   60.8    58    1.9   299      4.4   962.4    0.00       0    69.4
 294    4:10   60.0    60    2.8   310      3.5   962.3    0.00       0    69.3
 294    4:20   57.8    65    2.9   315      3.9   962.5    0.00       0    69.1
 294    4:30   58.3    64    2.5   300      3.7   962.6    0.00       0    69.0
 294    4:40   58.1    64    2.9   304      3.9   962.7    0.00       0    68.8
 294    4:50   59.3    62    2.1   320      3.5   962.6    0.00       0    68.7
 294    5:00   59.5    61    2.6   304      3.5   962.8    0.00       0    68.6
 294    5:10   59.1    62    2.1   295      3.5   963.0    0.00       0    68.5
 294    5:20   59.8    60    2.0   302      3.7   963.1    0.00       0    68.3
 294    5:30   58.9    63    3.6   320      5.9   963.3    0.00       0    68.2
 294    5:40   59.6    62    0.8   302      2.1   963.2    0.00       0    68.1
 294    5:50   59.9    61    1.0   267      2.4   963.3    0.00       1    68.1
 294    6:00   59.7    61    1.1   279      3.8   963.4    0.00       4    68.0
 294    6:10   59.3    62    1.3   294      3.4   963.4    0.00       8    67.9
 294    6:20   59.3    62    1.7   269      3.5   963.3    0.00      16    67.9
 294    6:30   61.4    58    1.3   247      2.6   963.2    0.00      20    67.8
 294    6:40   63.0    57    0.8    21      2.5   963.3    0.00      70    67.9
 294    6:50   62.4    59    2.1   341      4.3   963.7    0.00     104    68.0
 294    7:00   63.2    57    1.4   312      3.9   964.2    0.00     116    68.4
 294    7:10   65.1    53    1.6    16      3.6   964.4    0.00     165    68.8
 294    7:20   65.7    53    3.0   320      4.8   964.7    0.00     193    69.4
 294    7:30   66.4    50    2.8   316      5.3   965.0    0.00     221    69.9
 294    7:40   68.5    48    0.9   327      2.3   965.0    0.00     248    70.5
 294    7:50   69.5    46    3.5   310      5.6   965.3    0.00     274    71.2
 294    8:00   70.4    45    2.8   316      4.6   965.4    0.00     300    71.9
 294    8:10   72.3    42    1.0   307      2.9   965.5    0.00     200    72.6
 294    8:20   74.2    40    1.3     9      3.4   965.5    0.00      78    73.4
 294    8:30   74.0    41    2.8   329      4.6   965.8    0.00     173    74.2
 294    8:40   74.5    39    3.1   319      4.4   965.9    0.00     372    74.9
 294    8:50   75.1    37    3.0   329      5.0   965.9    0.00     378    75.5
 294    9:00   76.7    35    1.8   344      3.7   965.9    0.00     406    76.1
 294    9:10   77.8    34    2.2   337      5.0   966.0    0.00     341    76.6
 294    9:20   77.5    34    2.7   315      5.6   966.1    0.00     440    77.1
 294    9:30   78.9    32    1.6   356      3.5   966.1    0.00     458    77.5
 294    9:40   80.2    31    2.3   331      4.7   966.1    0.00     429    77.6
 294    9:50   80.2    31    2.6   313      5.4   966.1    0.00     438    77.6
 294   10:00   80.6    30    2.4   312      4.7   966.1    0.00     437    77.5
 294   10:10   81.9    29    1.2   274      3.2   966.0    0.00     537    77.4
 294   10:20   82.4    29    3.0   351      5.5   965.9    0.00     493    77.3
 294   10:30   82.9    28    2.9   349      5.2   965.8    0.00     571    77.2
 294   10:40   83.7    28    2.2   360      4.5   965.6    0.00     591    77.3
 294   10:50   84.1    27    2.7   280      5.7   965.6    0.00     597    77.3
 294   11:00   84.9    26    2.2   264      3.4   965.5    0.00     604    77.3
 294   11:10   86.5    25    1.4   112      4.8   965.3    0.00     607    77.3
 294   11:20   86.7    24    3.2   123      7.1   965.2    0.00     607    77.4
 294   11:30   87.1    24    2.6   149      6.5   965.0    0.00     610    77.5
 294   11:40   86.9    23    7.5   170     15.3   964.9    0.00     617    77.6
 294   11:50   86.8    23    4.6   189     10.7   964.7    0.00     613    77.8
 294   12:00   87.9    22    3.4   152      9.0   964.6    0.00     589    78.0
 294   12:10   88.3    21    7.7   206     14.3   964.4    0.00     555    78.2
 294   12:20   88.6    21    6.4   194     14.3   964.3    0.00     417    78.5
 294   12:30   88.4    21    6.9   188     12.4   964.2    0.00     591    78.8
 294   12:40   88.4    20    7.4   163     12.3   964.1    0.00     579    79.0
 294   12:50   88.6    19    7.3   194     14.7   964.1    0.00     528    79.2
 294   13:00   88.7    18    5.8   169     15.1   963.9    0.00     567    79.4
 294   13:10   88.9    15    7.9   196     13.1   963.9    0.00     555    79.6
 294   13:20   88.8    15    8.0   196     13.6   963.8    0.00     311    79.8
 294   13:30   89.1    15    5.7   197     14.2   963.6    0.00     108    80.1
 294   13:40   89.3    15    9.6   185     17.2   963.5    0.00     169    80.3
 294   13:50   88.8    15    8.2   179     12.7   963.4    0.00     269    80.6
 294   14:00   89.1    14    7.3   201     12.1   963.4    0.00     175    80.8
 294   14:10   88.9    16    5.8   198     13.6   963.3    0.00     238    81.0
 294   14:20   88.8    16    6.9   195     13.4   963.3    0.00       2    81.2
 294   14:30   89.1    16    4.5   202     10.6   963.3    0.00       2    81.4
 294   14:40   89.0    16    4.9   191      8.6   963.3    0.00      25    81.5
 294   14:50   88.6    16    5.4   201      9.9   963.2    0.00      28    81.7
 294   15:00   88.3    16    6.3   193     10.8   963.1    0.00      26    82.0
 294   15:10   88.1    16    4.2   208      8.6   963.1    0.00      22    82.1
 294   15:20   88.8    16    4.4   197      8.6   962.9    0.00       9    82.2
 294   15:30   88.9    16    6.2   186     12.0   962.8    0.00       9    82.1
 294   15:40   88.5    16    5.9   177      8.6   962.8    0.00       4    82.1
 294   15:50   88.5    17    4.2   186      8.8   962.8    0.00       3    82.1
 294   16:00   88.2    17    3.8   203      8.1   962.9    0.00       3    82.0
 294   16:10   87.9    18    4.1   193      9.1   962.8    0.00       3    81.9
 294   16:20   87.6    18    3.6   216      7.5   962.8    0.00      11    81.8
 294   16:30   87.3    18    1.3   200      3.1   962.6    0.00      22    81.7
 294   16:40   85.8    21    2.2    86      3.4   962.6    0.00      16    81.6
 294   16:50   84.1    23    1.8   103      2.6   962.6    0.00      10    81.4

Return to Overton, Nevada graphs page.


Western Regional Climate Center,wrcc@dri.edu